createdAt,value
2023-04-21T00:01:08.587Z,16.33
2023-04-21T00:06:12.316Z,16.63
2023-04-21T00:11:16.142Z,17.97
2023-04-21T00:16:20.550Z,16.43
2023-04-21T00:21:23.533Z,17.10
2023-04-21T00:26:26.510Z,15.17
2023-04-21T00:31:31.067Z,17.00
2023-04-21T00:36:34.084Z,15.17
2023-04-21T00:41:38.599Z,16.80
2023-04-21T00:46:43.336Z,15.70
2023-04-21T00:51:46.577Z,15.63
2023-04-21T00:56:51.624Z,16.53
2023-04-21T01:01:55.951Z,16.13
2023-04-21T01:06:59.953Z,15.57
2023-04-21T01:12:04.238Z,16.00
2023-04-21T01:17:11.470Z,16.60
2023-04-21T01:22:16.882Z,16.63
2023-04-21T01:27:21.162Z,15.63
2023-04-21T01:32:27.203Z,15.63
2023-04-21T01:37:33.671Z,15.53
2023-04-21T01:42:38.981Z,16.10
2023-04-21T01:47:41.985Z,15.67
2023-04-21T01:52:46.336Z,14.70
2023-04-21T01:57:51.249Z,15.57
2023-04-21T02:02:54.360Z,15.67
2023-04-21T02:07:58.748Z,16.00
2023-04-21T02:13:01.717Z,16.60
2023-04-21T02:18:06.553Z,17.03
2023-04-21T02:23:11.107Z,16.90
2023-04-21T02:28:14.080Z,18.47
2023-04-21T02:33:17.119Z,17.13
2023-04-21T02:38:21.437Z,17.17
2023-04-21T02:43:24.397Z,16.97
2023-04-21T02:48:27.755Z,16.57
2023-04-21T02:53:32.890Z,16.30
2023-04-21T02:58:36.589Z,16.80
2023-04-21T03:03:39.598Z,20.33
2023-04-21T03:08:43.898Z,20.33
2023-04-21T03:13:46.762Z,19.00
2023-04-21T03:18:49.686Z,17.13
2023-04-21T03:23:54.023Z,16.30
2023-04-21T03:28:57.036Z,17.30
2023-04-21T03:34:00.312Z,15.97
2023-04-21T03:39:18.777Z,15.40
2023-04-21T03:44:23.355Z,15.60
2023-04-21T03:49:26.322Z,15.20
2023-04-21T03:54:30.804Z,14.40
2023-04-21T03:59:33.711Z,15.90
2023-04-21T04:04:36.986Z,14.90
2023-04-21T04:09:41.376Z,15.30
2023-04-21T04:14:44.277Z,14.93
2023-04-21T04:19:47.180Z,15.57
2023-04-21T04:24:51.399Z,14.47
2023-04-21T04:29:54.316Z,15.10
2023-04-21T04:34:57.234Z,14.77
2023-04-21T04:40:01.545Z,16.00
2023-04-21T04:45:04.940Z,14.67
2023-04-21T04:50:08.658Z,15.43
2023-04-21T04:55:13.100Z,15.47
2023-04-21T05:00:16.333Z,15.17
2023-04-21T05:05:19.260Z,15.30
2023-04-21T05:10:23.588Z,15.10
2023-04-21T05:15:26.533Z,14.50
2023-04-21T05:20:29.435Z,15.53
2023-04-21T05:25:33.711Z,15.50
2023-04-21T05:30:36.934Z,16.77
2023-04-21T05:35:39.875Z,17.37
2023-04-21T05:40:44.155Z,16.50
2023-04-21T05:45:47.136Z,15.43
2023-04-21T05:50:50.151Z,16.20
2023-04-21T05:55:54.415Z,17.40
2023-04-21T06:00:57.361Z,17.60
2023-04-21T06:06:02.289Z,18.30
2023-04-21T06:11:06.909Z,17.80
2023-04-21T06:16:09.965Z,15.97
2023-04-21T06:21:12.916Z,17.30
2023-04-21T06:26:17.199Z,16.67
2023-04-21T06:31:20.255Z,17.73
2023-04-21T06:36:23.318Z,18.20
2023-04-21T06:41:28.501Z,17.97
2023-04-21T06:46:31.484Z,17.50
2023-04-21T06:51:34.467Z,15.87
2023-04-21T06:56:38.816Z,8.60
2023-04-21T07:01:41.967Z,7.00
2023-04-21T07:06:44.991Z,6.50
2023-04-21T07:11:49.283Z,6.40
2023-04-21T07:16:52.248Z,6.57
2023-04-21T07:21:55.199Z,6.00
2023-04-21T07:26:59.473Z,6.70
2023-04-21T07:32:02.368Z,5.50
2023-04-21T07:37:05.247Z,6.20
2023-04-21T07:42:11.076Z,6.13
2023-04-21T07:47:15.169Z,7.17
2023-04-21T07:52:18.039Z,7.20
2023-04-21T07:57:22.307Z,6.50
2023-04-21T08:02:25.429Z,5.70
2023-04-21T08:07:28.553Z,5.53
2023-04-21T08:12:32.857Z,5.90
2023-04-21T08:17:36.194Z,5.93
2023-04-21T08:22:39.239Z,6.10
2023-04-21T08:27:43.952Z,5.60
2023-04-21T08:32:46.972Z,6.00
2023-04-21T08:37:51.592Z,5.17
2023-04-21T08:42:59.236Z,5.20
2023-04-21T08:48:04.612Z,5.87
2023-04-21T08:53:07.681Z,5.40
2023-04-21T08:58:13.369Z,4.40
2023-04-21T09:03:25.843Z,5.10
2023-04-21T09:08:30.483Z,5.43
2023-04-21T09:13:36.371Z,4.27
2023-04-21T09:18:40.467Z,4.73
2023-04-21T09:23:44.539Z,4.10
2023-04-21T09:28:50.992Z,4.53
2023-04-21T09:33:58.366Z,3.80
2023-04-21T09:44:12.129Z,3.60
2023-04-21T09:49:18.018Z,3.70
2023-04-21T09:54:29.823Z,3.70
2023-04-21T09:59:37.076Z,3.37
2023-04-21T10:04:43.218Z,3.60
2023-04-21T10:09:50.123Z,3.80
2023-04-21T10:14:54.596Z,3.97
2023-04-21T10:19:59.960Z,3.70
2023-04-21T10:25:04.513Z,3.20
2023-04-21T10:30:23.456Z,3.63
2023-04-21T10:35:26.785Z,3.83
2023-04-21T10:45:47.036Z,4.23
2023-04-21T10:50:49.962Z,4.17
2023-04-21T10:55:54.382Z,3.23
2023-04-21T11:00:59.242Z,3.20
2023-04-21T11:06:15.661Z,3.37
2023-04-21T11:11:23.891Z,3.33
2023-04-21T11:16:28.433Z,3.57
2023-04-21T11:21:31.674Z,3.57
2023-04-21T11:26:38.342Z,4.40
2023-04-21T11:31:45.497Z,3.73
2023-04-21T11:36:49.884Z,3.17
2023-04-21T11:41:53.221Z,3.90
2023-04-21T11:46:57.655Z,3.47
2023-04-21T11:52:00.616Z,3.27
2023-04-21T11:57:03.562Z,3.63
2023-04-21T12:02:15.384Z,3.73
2023-04-21T12:07:24.104Z,4.30
2023-04-21T12:12:27.394Z,4.00
2023-04-21T12:17:39.104Z,3.43
2023-04-21T12:22:42.076Z,3.60
2023-04-21T12:27:52.067Z,4.00
2023-04-21T12:32:56.545Z,3.60
2023-04-21T12:37:59.492Z,3.80
2023-04-21T12:43:02.437Z,3.47
2023-04-21T12:48:06.933Z,3.70
2023-04-21T12:53:09.874Z,3.67
2023-04-21T12:58:15.710Z,3.27
2023-04-21T13:03:20.106Z,3.60
2023-04-21T13:08:23.105Z,3.73
2023-04-21T13:13:26.586Z,3.47
2023-04-21T13:18:31.103Z,3.43
2023-04-21T13:23:34.090Z,3.30
2023-04-21T13:28:37.363Z,3.90
2023-04-21T13:33:42.151Z,3.70
2023-04-21T13:38:45.490Z,3.10
2023-04-21T13:43:48.474Z,3.93
2023-04-21T13:48:52.851Z,3.60
2023-04-21T13:53:55.862Z,3.90
2023-04-21T13:59:00.111Z,3.47
2023-04-21T14:04:04.587Z,2.90
2023-04-21T14:09:09.466Z,3.23
2023-04-21T14:14:15.255Z,3.30
2023-04-21T14:19:21.330Z,3.20
2023-04-21T14:24:25.503Z,3.83
2023-04-21T14:29:28.522Z,3.13
2023-04-21T14:34:32.805Z,3.50
2023-04-21T14:39:35.847Z,3.60
2023-04-21T14:44:39.237Z,3.27
2023-04-21T14:49:43.918Z,3.27
2023-04-21T14:54:46.790Z,3.67
2023-04-21T14:59:51.478Z,4.70
2023-04-21T15:04:55.913Z,3.87
2023-04-21T15:09:58.938Z,3.33
2023-04-21T15:15:01.938Z,3.60
2023-04-21T15:20:07.572Z,3.50
2023-04-21T15:25:11.174Z,3.50
2023-04-21T15:30:15.138Z,4.00
2023-04-21T15:35:19.638Z,3.77
2023-04-21T15:40:22.596Z,4.30
2023-04-21T15:45:25.580Z,3.93
2023-04-21T15:50:31.468Z,7.03
2023-04-21T15:55:34.904Z,4.60
2023-04-21T16:00:38.112Z,4.60
2023-04-21T16:05:42.570Z,4.83
2023-04-21T16:10:45.975Z,3.73
2023-04-21T16:15:48.936Z,3.90
2023-04-21T16:20:53.879Z,4.07
2023-04-21T16:25:57.131Z,3.80
2023-04-21T16:31:00.012Z,6.23
2023-04-21T16:36:05.712Z,6.87
2023-04-21T16:41:08.787Z,7.40
2023-04-21T16:46:11.705Z,8.00
2023-04-21T16:51:16.037Z,8.13
2023-04-21T16:56:20.313Z,8.13
2023-04-21T17:01:23.269Z,8.13
2023-04-21T17:06:28.951Z,8.00
2023-04-21T17:11:32.635Z,8.17
2023-04-21T17:16:35.733Z,8.60
2023-04-21T17:21:40.048Z,8.87
2023-04-21T17:26:43.368Z,8.70
2023-04-21T17:31:46.354Z,10.17
2023-04-21T17:36:50.731Z,8.97
2023-04-21T17:41:53.763Z,9.90
2023-04-21T17:46:57.882Z,9.20
2023-04-21T17:52:02.212Z,10.77
2023-04-21T17:57:06.743Z,9.20
2023-04-21T18:02:09.800Z,10.70
2023-04-21T18:07:14.993Z,9.60
2023-04-21T18:12:18.378Z,15.17
2023-04-21T18:17:23.422Z,10.43
2023-04-21T18:22:27.777Z,10.17
2023-04-21T18:27:31.248Z,12.27
2023-04-21T18:32:34.755Z,12.47
2023-04-21T18:37:39.107Z,10.03
2023-04-21T18:42:41.994Z,10.10
2023-04-21T18:47:46.928Z,9.90
2023-04-21T18:52:51.340Z,11.07
2023-04-21T18:57:55.047Z,13.83
2023-04-21T19:02:58.491Z,16.03
2023-04-21T19:08:03.081Z,15.43
2023-04-21T19:13:06.386Z,14.00
2023-04-21T19:18:09.443Z,11.30
2023-04-21T19:23:13.746Z,12.57
2023-04-21T19:28:16.677Z,12.40
2023-04-21T19:33:19.659Z,11.87
2023-04-21T19:38:24.096Z,11.60
2023-04-21T19:43:26.991Z,10.37
2023-04-21T19:48:29.940Z,9.40
2023-04-21T19:53:34.356Z,11.33
2023-04-21T19:58:40.678Z,10.43
2023-04-21T20:03:43.959Z,10.40
2023-04-21T20:08:48.275Z,9.40
2023-04-21T20:13:51.622Z,10.53
2023-04-21T20:18:55.542Z,11.20
2023-04-21T20:23:59.839Z,10.77
2023-04-21T20:29:02.781Z,10.80
2023-04-21T20:34:05.680Z,10.00
2023-04-21T20:39:10.021Z,10.47
2023-04-21T20:44:14.217Z,9.77
2023-04-21T20:49:17.188Z,10.17
2023-04-21T20:54:21.424Z,10.73
2023-04-21T20:59:24.400Z,10.53
2023-04-21T21:04:27.579Z,9.37
2023-04-21T21:09:32.706Z,10.70
2023-04-21T21:14:35.827Z,9.30
2023-04-21T21:19:39.183Z,9.20
2023-04-21T21:24:43.671Z,8.93
2023-04-21T21:29:46.620Z,8.70
2023-04-21T21:34:49.713Z,7.83
2023-04-21T21:39:55.263Z,9.40
2023-04-21T21:44:58.267Z,9.93
2023-04-21T21:50:01.268Z,12.23
2023-04-21T21:55:06.344Z,12.00
2023-04-21T22:00:12.966Z,12.73
2023-04-21T22:05:15.855Z,11.93
2023-04-21T22:10:20.216Z,11.20
2023-04-21T22:15:23.119Z,10.30
2023-04-21T22:20:26.946Z,11.53
2023-04-21T22:25:31.256Z,12.00
2023-04-21T22:30:34.273Z,11.50
2023-04-21T22:35:37.202Z,10.57
2023-04-21T22:40:41.602Z,11.13
2023-04-21T22:45:44.507Z,11.13
2023-04-21T22:50:47.455Z,9.40
2023-04-21T22:55:51.832Z,9.40
2023-04-21T23:00:54.867Z,9.70
2023-04-21T23:05:57.881Z,11.00
2023-04-21T23:11:04.073Z,11.00
2023-04-21T23:16:07.195Z,12.30
2023-04-21T23:21:10.168Z,11.50
2023-04-21T23:26:14.446Z,11.80
2023-04-21T23:31:17.434Z,12.70
2023-04-21T23:36:20.314Z,12.50
2023-04-21T23:41:24.642Z,11.30
2023-04-21T23:46:27.730Z,12.53
2023-04-21T23:51:31.309Z,11.13
2023-04-21T23:56:35.898Z,10.93
